createdAt,value
2018-12-13T00:01:09.916Z,99719.23
2018-12-13T00:03:41.168Z,99718.84
2018-12-13T00:06:12.397Z,99723.92
2018-12-13T00:08:42.458Z,99717.66
2018-12-13T00:11:11.705Z,99716.85
2018-12-13T00:13:40.884Z,99720.00
2018-12-13T00:16:09.993Z,99717.20
2018-12-13T00:18:39.140Z,99718.42
2018-12-13T00:21:08.659Z,99720.19
2018-12-13T00:23:38.091Z,99714.91
2018-12-13T00:26:08.286Z,99715.21
2018-12-13T00:28:38.218Z,99711.36
2018-12-13T00:31:07.383Z,99707.44
2018-12-13T00:33:36.515Z,99702.98
2018-12-13T00:36:05.952Z,99693.41
2018-12-13T00:38:35.244Z,99696.97
2018-12-13T00:41:04.429Z,99692.45
2018-12-13T00:43:33.601Z,99694.70
2018-12-13T00:46:02.785Z,99704.01
2018-12-13T00:48:32.138Z,99690.16
2018-12-13T00:51:01.318Z,99697.21
2018-12-13T00:53:30.507Z,99705.27
2018-12-13T00:55:59.671Z,99702.83
2018-12-13T00:58:28.859Z,99707.06
2018-12-13T01:01:01.805Z,99708.88
2018-12-13T01:03:31.880Z,99702.88
2018-12-13T01:06:01.296Z,99704.48
2018-12-13T01:08:30.485Z,99702.41
2018-12-13T01:10:59.917Z,99706.07
2018-12-13T01:13:29.101Z,99704.80
2018-12-13T01:15:58.261Z,99701.30
2018-12-13T01:18:28.121Z,99709.95
2018-12-13T01:20:57.257Z,99708.22
2018-12-13T01:28:19.004Z,99709.11
2018-12-13T01:30:48.162Z,99696.98
2018-12-13T01:33:17.314Z,99695.98
2018-12-13T01:35:46.779Z,99695.61
2018-12-13T01:38:15.919Z,99686.45
2018-12-13T01:40:45.113Z,99690.66
2018-12-13T01:43:14.429Z,99687.17
2018-12-13T01:45:43.611Z,99681.94
2018-12-13T01:48:12.852Z,99683.59
2018-12-13T01:50:42.145Z,99676.33
2018-12-13T01:53:11.309Z,99678.27
2018-12-13T01:55:40.439Z,99680.50
2018-12-13T01:58:09.668Z,99674.99
2018-12-13T02:00:38.967Z,99672.13
2018-12-13T02:03:08.489Z,99669.36
2018-12-13T02:05:37.958Z,99670.05
2018-12-13T02:08:08.562Z,99667.02
2018-12-13T02:10:37.812Z,99662.51
2018-12-13T02:13:08.317Z,99652.29
2018-12-13T02:15:37.511Z,99653.69
2018-12-13T02:18:06.869Z,99662.22
2018-12-13T02:20:36.059Z,99662.53
2018-12-13T02:23:05.876Z,99662.94
2018-12-13T02:25:35.257Z,99656.21
2018-12-13T02:28:04.500Z,99663.44
2018-12-13T02:30:33.671Z,99658.30
2018-12-13T02:33:03.094Z,99659.13
2018-12-13T02:35:32.280Z,99657.59
2018-12-13T02:38:01.575Z,99655.73
2018-12-13T02:40:30.807Z,99652.48
2018-12-13T02:43:00.767Z,99648.20
2018-12-13T02:45:30.158Z,99646.89
2018-12-13T02:47:59.848Z,99644.63
2018-12-13T02:50:29.441Z,99651.85
2018-12-13T02:52:58.640Z,99649.78
2018-12-13T02:55:27.799Z,99650.31
2018-12-13T02:57:56.959Z,99639.45
2018-12-13T03:00:26.107Z,99641.75
2018-12-13T03:02:55.457Z,99643.78
2018-12-13T03:05:24.867Z,99642.52
2018-12-13T03:07:54.393Z,99650.45
2018-12-13T03:10:25.977Z,99639.56
2018-12-13T03:12:55.878Z,99633.48
2018-12-13T03:15:25.416Z,99640.67
2018-12-13T03:17:54.581Z,99638.19
2018-12-13T03:20:23.724Z,99631.78
2018-12-13T03:22:52.927Z,99628.20
2018-12-13T03:25:22.602Z,99635.80
2018-12-13T03:27:51.744Z,99628.69
2018-12-13T03:30:20.982Z,99625.89
2018-12-13T03:32:50.169Z,99627.26
2018-12-13T03:35:19.382Z,99622.84
2018-12-13T03:37:50.624Z,99628.25
2018-12-13T03:40:20.080Z,99619.06
2018-12-13T03:42:49.290Z,99619.98
2018-12-13T03:45:18.399Z,99621.95
2018-12-13T03:47:49.493Z,99622.31
2018-12-13T03:50:18.797Z,99620.55
2018-12-13T03:52:47.968Z,99618.02
2018-12-13T03:55:17.137Z,99618.12
2018-12-13T03:57:46.296Z,99616.31
2018-12-13T04:00:15.501Z,99611.20
2018-12-13T04:02:44.788Z,99609.72
2018-12-13T04:05:14.028Z,99610.52
2018-12-13T04:07:43.220Z,99606.60
2018-12-13T04:10:13.722Z,99611.23
2018-12-13T04:12:42.847Z,99611.95
2018-12-13T04:15:12.204Z,99609.41
2018-12-13T04:17:41.409Z,99605.02
2018-12-13T04:20:12.625Z,99613.63
2018-12-13T04:22:41.894Z,99610.71
2018-12-13T04:25:11.255Z,99620.67
2018-12-13T04:27:40.714Z,99614.51
2018-12-13T04:30:10.143Z,99619.86
2018-12-13T04:32:39.323Z,99618.06
2018-12-13T04:35:08.590Z,99608.69
2018-12-13T04:37:38.804Z,99604.33
2018-12-13T04:40:08.323Z,99606.66
2018-12-13T04:42:37.421Z,99603.92
2018-12-13T04:45:07.282Z,99605.81
2018-12-13T04:47:37.214Z,99602.39
2018-12-13T04:50:07.281Z,99608.84
2018-12-13T04:52:36.501Z,99610.55
2018-12-13T04:55:06.140Z,99606.09
2018-12-13T04:57:35.308Z,99611.45
2018-12-13T05:00:05.176Z,99605.73
2018-12-13T05:02:34.485Z,99609.55
2018-12-13T05:05:03.976Z,99607.47
2018-12-13T05:07:33.259Z,99599.56
2018-12-13T05:10:02.620Z,99602.39
2018-12-13T05:12:33.185Z,99601.42
2018-12-13T05:15:02.520Z,99593.08
2018-12-13T05:17:31.724Z,99601.80
2018-12-13T05:20:00.864Z,99603.16
2018-12-13T05:22:30.512Z,99601.27
2018-12-13T05:25:00.445Z,99597.94
2018-12-13T05:27:29.737Z,99604.66
2018-12-13T05:29:58.938Z,99606.24
2018-12-13T05:32:28.103Z,99612.81
2018-12-13T05:34:57.508Z,99613.81
2018-12-13T05:37:26.682Z,99607.63
2018-12-13T05:39:56.480Z,99615.75
2018-12-13T05:42:25.591Z,99606.83
2018-12-13T05:44:54.748Z,99597.72
2018-12-13T05:47:24.993Z,99593.38
2018-12-13T05:49:54.151Z,99597.89
2018-12-13T05:52:23.884Z,99597.36
2018-12-13T05:54:53.025Z,99594.97
2018-12-13T05:57:22.154Z,99592.41
2018-12-13T05:59:51.402Z,99596.09
2018-12-13T06:03:45.145Z,99592.45
2018-12-13T06:06:14.489Z,99591.72
2018-12-13T06:08:43.774Z,99594.88
2018-12-13T06:11:12.963Z,99593.25
2018-12-13T06:13:42.367Z,99590.50
2018-12-13T06:16:11.666Z,99591.14
2018-12-13T06:18:40.923Z,99588.52
2018-12-13T06:21:11.935Z,99588.02
2018-12-13T06:23:41.551Z,99589.15
2018-12-13T06:26:10.730Z,99588.38
2018-12-13T06:28:39.992Z,99586.45
2018-12-13T06:31:09.902Z,99589.45
2018-12-13T06:33:39.081Z,99582.29
2018-12-13T06:36:08.290Z,99588.23
2018-12-13T06:38:37.880Z,99585.40
2018-12-13T06:41:07.281Z,99582.45
2018-12-13T06:43:36.490Z,99586.19
2018-12-13T06:46:05.842Z,99582.91
2018-12-13T06:48:34.975Z,99582.78
2018-12-13T06:51:04.158Z,99581.19
2018-12-13T06:53:33.538Z,99580.37
2018-12-13T06:56:02.768Z,99587.52
2018-12-13T06:58:32.057Z,99583.20
2018-12-13T07:01:01.671Z,99578.62
2018-12-13T07:03:32.117Z,99573.45
2018-12-13T07:06:03.104Z,99578.09
2018-12-13T07:08:32.239Z,99575.20
2018-12-13T07:11:01.413Z,99577.09
2018-12-13T07:13:30.933Z,99580.87
2018-12-13T07:16:00.296Z,99571.34
2018-12-13T07:18:29.453Z,99581.25
2018-12-13T07:20:58.672Z,99583.19
2018-12-13T07:23:27.800Z,99581.05
2018-12-13T07:25:56.938Z,99577.58
2018-12-13T07:28:26.820Z,99573.87
2018-12-13T07:30:55.962Z,99573.73
2018-12-13T07:33:25.111Z,99572.93
2018-12-13T07:35:55.174Z,99582.78
2018-12-13T07:38:24.380Z,99581.02
2018-12-13T07:40:53.650Z,99585.27
2018-12-13T07:43:26.147Z,99585.98
2018-12-13T07:45:55.348Z,99581.25
2018-12-13T07:48:26.009Z,99581.42
2018-12-13T07:50:55.482Z,99588.99
2018-12-13T07:53:24.678Z,99583.45
2018-12-13T07:55:53.910Z,99587.69
2018-12-13T07:58:23.059Z,99586.79
2018-12-13T08:00:52.694Z,99575.99
2018-12-13T08:03:22.076Z,99579.75
2018-12-13T08:05:51.414Z,99577.13
2018-12-13T08:08:21.101Z,99575.91
2018-12-13T08:10:51.089Z,99582.19
2018-12-13T08:13:20.234Z,99581.88
2018-12-13T08:15:49.874Z,99580.37
2018-12-13T08:18:20.824Z,99582.90
2018-12-13T08:20:52.139Z,99582.02
2018-12-13T08:23:21.500Z,99575.86
2018-12-13T08:25:50.910Z,99578.11
2018-12-13T08:28:20.147Z,99573.82
2018-12-13T08:30:49.537Z,99573.96
2018-12-13T08:33:18.775Z,99576.10
2018-12-13T08:35:48.060Z,99575.66
2018-12-13T08:38:17.727Z,99575.72
2018-12-13T08:40:46.944Z,99578.00
2018-12-13T08:43:16.361Z,99575.16
2018-12-13T08:45:46.541Z,99570.09
2018-12-13T08:48:15.759Z,99574.89
2018-12-13T08:50:45.253Z,99575.16
2018-12-13T08:53:14.601Z,99574.13
2018-12-13T08:55:44.309Z,99578.16
2018-12-13T08:58:13.579Z,99575.73
2018-12-13T09:00:43.153Z,99574.83
2018-12-13T09:03:18.795Z,99573.80
2018-12-13T09:05:50.526Z,99574.83
2018-12-13T09:08:20.037Z,99572.98
2018-12-13T09:10:53.293Z,99573.48
2018-12-13T09:13:22.884Z,99567.39
2018-12-13T09:15:52.269Z,99561.12
2018-12-13T09:18:21.949Z,99558.64
2018-12-13T09:20:51.140Z,99569.28
2018-12-13T09:23:29.291Z,99559.92
2018-12-13T09:26:02.195Z,99566.75
2018-12-13T09:28:31.638Z,99560.59
2018-12-13T09:31:00.914Z,99553.15
2018-12-13T09:33:30.811Z,99558.37
2018-12-13T09:36:00.562Z,99557.36
2018-12-13T09:38:29.849Z,99551.45
2018-12-13T09:40:59.295Z,99546.86
2018-12-13T09:43:28.771Z,99539.35
2018-12-13T09:45:58.968Z,99542.33
2018-12-13T09:48:28.227Z,99545.75
2018-12-13T09:50:58.010Z,99545.52
2018-12-13T09:53:27.319Z,99533.97
2018-12-13T09:55:56.859Z,99535.71
2018-12-13T09:58:26.785Z,99536.86
2018-12-13T10:00:55.961Z,99532.00
2018-12-13T10:03:25.725Z,99527.78
2018-12-13T10:05:54.956Z,99522.19
2018-12-13T10:08:24.183Z,99524.37
2018-12-13T10:10:53.841Z,99515.26
2018-12-13T10:13:23.717Z,99515.25
2018-12-13T10:15:52.936Z,99528.23
2018-12-13T10:18:39.720Z,99518.89
2018-12-13T10:21:10.709Z,99519.47
2018-12-13T10:23:40.023Z,99524.30
2018-12-13T10:26:12.051Z,99522.70
2018-12-13T10:28:41.523Z,99520.80
2018-12-13T10:31:12.010Z,99516.00
2018-12-13T10:33:41.321Z,99523.00
2018-12-13T10:36:20.351Z,99518.34
2018-12-13T10:38:53.052Z,99513.37
2018-12-13T10:41:21.164Z,99515.99
2018-12-13T10:43:50.566Z,99513.69
2018-12-13T10:46:21.485Z,99517.03
2018-12-13T10:49:11.364Z,99508.20
2018-12-13T10:51:54.071Z,99510.75
2018-12-13T10:54:34.581Z,99508.13
2018-12-13T10:57:13.974Z,99510.09
2018-12-13T10:59:52.198Z,99518.03
2018-12-13T11:02:36.612Z,99512.86
2018-12-13T11:05:15.014Z,99513.45
2018-12-13T11:07:52.330Z,99510.16
2018-12-13T11:10:30.745Z,99508.06
2018-12-13T11:13:12.215Z,99504.74
2018-12-13T11:15:51.586Z,99501.89
2018-12-13T11:18:31.578Z,99500.20
2018-12-13T11:21:17.519Z,99490.16
2018-12-13T11:23:55.539Z,99492.77
2018-12-13T11:26:35.927Z,99486.67
2018-12-13T11:31:20.245Z,99489.06
2018-12-13T11:33:59.558Z,99480.13
2018-12-13T11:36:35.784Z,99480.39
2018-12-13T11:39:15.432Z,99480.42
2018-12-13T11:41:52.337Z,99476.29
2018-12-13T11:44:23.736Z,99479.56
2018-12-13T11:46:58.677Z,99480.56
2018-12-13T11:49:28.058Z,99478.80
2018-12-13T11:51:57.787Z,99482.34
2018-12-13T11:54:41.723Z,99470.61
2018-12-13T11:57:11.515Z,99474.73
2018-12-13T11:59:41.856Z,99472.73
2018-12-13T12:02:11.463Z,99471.72
2018-12-13T12:04:41.101Z,99465.73
2018-12-13T12:07:11.813Z,99472.73
2018-12-13T12:09:41.365Z,99468.31
2018-12-13T12:12:11.040Z,99470.45
2018-12-13T12:14:41.206Z,99471.16
2018-12-13T12:17:11.060Z,99466.77
2018-12-13T12:19:40.764Z,99466.22
2018-12-13T12:22:10.681Z,99463.77
2018-12-13T12:24:40.500Z,99465.77
2018-12-13T12:27:10.163Z,99465.48
2018-12-13T12:29:39.527Z,99460.95
2018-12-13T12:32:09.077Z,99457.89
2018-12-13T12:34:38.368Z,99462.08
2018-12-13T12:37:08.280Z,99463.69
2018-12-13T12:39:38.152Z,99466.33
2018-12-13T12:42:07.590Z,99464.64
2018-12-13T12:44:39.208Z,99459.22
2018-12-13T12:47:08.576Z,99464.14
2018-12-13T12:49:38.250Z,99454.73
2018-12-13T12:52:08.045Z,99459.02
2018-12-13T12:54:38.597Z,99457.78
2018-12-13T12:57:09.750Z,99460.04
2018-12-13T12:59:40.810Z,99463.53
2018-12-13T13:02:10.287Z,99456.28
2018-12-13T13:04:39.728Z,99454.51
2018-12-13T13:07:09.120Z,99458.09
2018-12-13T13:09:38.506Z,99451.69
2018-12-13T13:12:08.034Z,99449.44
2018-12-13T13:14:37.772Z,99447.88
2018-12-13T13:17:08.342Z,99448.05
2018-12-13T13:19:38.152Z,99444.50
2018-12-13T13:22:08.021Z,99447.97
2018-12-13T13:24:37.781Z,99443.81
2018-12-13T13:27:07.152Z,99440.00
2018-12-13T13:29:36.843Z,99433.62
2018-12-13T13:32:06.282Z,99431.00
2018-12-13T13:34:36.356Z,99436.46
2018-12-13T13:37:06.345Z,99437.02
2018-12-13T13:39:36.479Z,99434.88
2018-12-13T13:42:06.048Z,99438.09
2018-12-13T13:44:39.521Z,99441.48
2018-12-13T13:47:09.024Z,99439.41
2018-12-13T13:49:38.526Z,99441.89
2018-12-13T13:52:08.731Z,99440.91
2018-12-13T13:54:42.087Z,99444.33
2018-12-13T13:57:13.462Z,99447.60
2018-12-13T13:59:43.155Z,99445.11
2018-12-13T14:02:12.709Z,99446.38
2018-12-13T14:04:42.546Z,99447.13
2018-12-13T14:07:12.170Z,99443.20
2018-12-13T14:09:43.365Z,99449.48
2018-12-13T14:12:13.426Z,99444.07
2018-12-13T14:14:44.811Z,99441.62
2018-12-13T14:17:14.902Z,99442.92
2018-12-13T14:19:44.364Z,99439.89
2018-12-13T14:22:13.724Z,99437.86
2018-12-13T14:24:43.250Z,99439.89
2018-12-13T14:27:12.867Z,99431.55
2018-12-13T14:29:42.835Z,99433.92
2018-12-13T14:32:12.089Z,99438.30
2018-12-13T14:34:41.327Z,99439.45
2018-12-13T14:37:10.981Z,99437.29
2018-12-13T14:39:44.362Z,99441.22
2018-12-13T14:42:15.641Z,99440.18
2018-12-13T14:44:44.876Z,99439.74
2018-12-13T14:47:14.413Z,99441.22
2018-12-13T14:49:43.744Z,99442.53
2018-12-13T14:52:13.035Z,99441.22
2018-12-13T14:54:44.188Z,99440.77
2018-12-13T14:57:13.543Z,99445.14
2018-12-13T14:59:47.046Z,99441.77
2018-12-13T15:02:14.841Z,99444.16
2018-12-13T15:04:44.799Z,99438.04
2018-12-13T15:07:14.094Z,99446.88
2018-12-13T15:09:43.357Z,99442.30
2018-12-13T15:12:13.026Z,99442.72
2018-12-13T15:14:42.213Z,99443.89
2018-12-13T15:17:11.391Z,99442.22
2018-12-13T15:19:40.739Z,99445.98
2018-12-13T15:22:09.974Z,99442.95
2018-12-13T15:24:39.253Z,99442.52
2018-12-13T15:27:08.626Z,99436.62
2018-12-13T15:29:37.957Z,99440.46
2018-12-13T15:32:07.290Z,99442.63
2018-12-13T15:34:36.596Z,99438.84
2018-12-13T15:37:07.291Z,99433.83
2018-12-13T15:39:36.479Z,99437.91
2018-12-13T15:42:05.890Z,99438.43
2018-12-13T15:44:35.528Z,99441.02
2018-12-13T15:47:06.205Z,99443.48
2018-12-13T15:49:35.515Z,99438.56
2018-12-13T15:52:04.835Z,99439.80
2018-12-13T15:54:34.929Z,99440.89
2018-12-13T15:57:04.137Z,99436.89
2018-12-13T15:59:33.323Z,99436.64
2018-12-13T16:02:03.343Z,99434.00
2018-12-13T16:04:32.566Z,99431.95
2018-12-13T16:07:01.892Z,99432.70
2018-12-13T16:09:31.209Z,99435.06
2018-12-13T16:12:08.978Z,99433.36
2018-12-13T16:14:39.766Z,99435.64
2018-12-13T16:17:09.135Z,99434.55
2018-12-13T16:19:38.359Z,99440.38
2018-12-13T16:22:08.334Z,99339.71
2018-12-13T16:24:37.532Z,99443.20
2018-12-13T16:27:06.762Z,99435.55
2018-12-13T16:29:36.472Z,99434.77
2018-12-13T16:32:05.822Z,99428.51
2018-12-13T16:34:35.020Z,99428.73
2018-12-13T16:37:04.395Z,99426.97
2018-12-13T16:39:33.547Z,99428.20
2018-12-13T16:42:02.850Z,99434.20
2018-12-13T16:44:32.436Z,99437.13
2018-12-13T16:47:01.680Z,99441.61
2018-12-13T16:49:30.834Z,99435.62
2018-12-13T16:52:00.214Z,99438.92
2018-12-13T16:54:30.021Z,99437.70
2018-12-13T16:57:01.242Z,99440.39
2018-12-13T16:59:30.392Z,99434.27
2018-12-13T17:01:59.602Z,99438.02
2018-12-13T17:04:28.910Z,99443.86
2018-12-13T17:06:58.206Z,99437.30
2018-12-13T17:09:27.909Z,99446.56
2018-12-13T17:11:57.218Z,99448.77
2018-12-13T17:14:26.433Z,99450.58
2018-12-13T17:16:55.971Z,99439.52
2018-12-13T17:19:25.408Z,99441.88
2018-12-13T17:21:55.491Z,99438.50
2018-12-13T17:24:24.708Z,99441.20
2018-12-13T17:26:53.967Z,99445.66
2018-12-13T17:29:23.142Z,99446.95
2018-12-13T17:31:52.644Z,99446.16
2018-12-13T17:34:21.994Z,99447.88
2018-12-13T17:36:51.499Z,99439.01
2018-12-13T17:39:20.698Z,99441.49
2018-12-13T17:41:50.467Z,99445.20
2018-12-13T17:44:19.813Z,99444.49
2018-12-13T17:46:49.038Z,99444.98
2018-12-13T17:49:18.540Z,99446.73
2018-12-13T17:51:49.165Z,99449.58
2018-12-13T17:54:19.743Z,99451.70
2018-12-13T17:56:49.562Z,99457.20
2018-12-13T17:59:20.432Z,99456.55
2018-12-13T18:01:50.373Z,99457.94
2018-12-13T18:04:19.580Z,99459.82
2018-12-13T18:06:49.278Z,99466.69
2018-12-13T18:09:18.556Z,99461.21
2018-12-13T18:11:48.165Z,99458.59
2018-12-13T18:14:19.147Z,99459.40
2018-12-13T18:16:48.473Z,99464.41
2018-12-13T18:19:17.820Z,99461.14
2018-12-13T18:21:47.513Z,99458.94
2018-12-13T18:24:16.759Z,99465.06
2018-12-13T18:26:46.762Z,99466.37
2018-12-13T18:29:16.723Z,99465.55
2018-12-13T18:31:47.450Z,99461.86
2018-12-13T18:34:18.850Z,99467.26
2018-12-13T18:36:48.517Z,99471.19
2018-12-13T18:39:17.877Z,99470.61
2018-12-13T18:41:47.495Z,99474.61
2018-12-13T18:44:16.804Z,99473.08
2018-12-13T18:46:46.443Z,99470.88
2018-12-13T18:49:16.382Z,99471.61
2018-12-13T18:51:45.689Z,99469.50
2018-12-13T18:54:16.798Z,99473.50
2018-12-13T18:56:47.714Z,99474.73
2018-12-13T18:59:16.979Z,99469.50
2018-12-13T19:01:47.857Z,99470.23
2018-12-13T19:04:18.294Z,99469.66
2018-12-13T19:06:49.193Z,99465.57
2018-12-13T19:09:19.517Z,99464.64
2018-12-13T19:11:49.022Z,99468.84
2018-12-13T19:14:19.191Z,99462.75
2018-12-13T19:16:48.651Z,99458.17
2018-12-13T19:19:20.005Z,99460.14
2018-12-13T19:21:49.457Z,99458.95
2018-12-13T19:24:18.834Z,99462.22
2018-12-13T19:26:49.131Z,99457.94
2018-12-13T19:29:18.633Z,99462.95
2018-12-13T19:31:49.059Z,99459.98
2018-12-13T19:34:19.645Z,99458.30
2018-12-13T19:36:49.820Z,99459.98
2018-12-13T19:39:23.585Z,99460.71
2018-12-13T19:41:54.129Z,99457.14
2018-12-13T19:44:23.719Z,99457.05
2018-12-13T19:46:53.028Z,99463.69
2018-12-13T19:49:31.537Z,99462.02
2018-12-13T19:52:07.803Z,99467.27
2018-12-13T19:54:38.692Z,99475.11
2018-12-13T19:57:08.171Z,99477.59
2018-12-13T19:59:37.548Z,99474.08
2018-12-13T20:02:07.083Z,99471.92
2018-12-13T20:04:39.056Z,99481.20
2018-12-13T20:07:08.414Z,99478.16
2018-12-13T20:09:37.726Z,99482.31
2018-12-13T20:12:08.551Z,99489.52
2018-12-13T20:17:35.595Z,99484.13
2018-12-13T20:20:10.174Z,99482.52
2018-12-13T20:25:18.758Z,99475.70
2018-12-13T20:27:49.982Z,99479.47
2018-12-13T20:30:19.445Z,99475.39
2018-12-13T20:32:49.268Z,99474.66
2018-12-13T20:35:22.914Z,99471.19
2018-12-13T20:37:52.337Z,99467.69
2018-12-13T20:40:22.273Z,99472.65
2018-12-13T20:42:51.643Z,99475.77
2018-12-13T20:45:22.978Z,99478.09
2018-12-13T20:47:58.617Z,99484.63
2018-12-13T20:53:24.571Z,99480.77
2018-12-13T20:55:54.215Z,99475.84
2018-12-13T20:58:35.711Z,99484.77
2018-12-13T21:01:07.064Z,99487.75
2018-12-13T21:03:43.181Z,99489.05
2018-12-13T21:06:18.695Z,99494.91
2018-12-13T21:08:48.236Z,99501.95
2018-12-13T21:11:17.802Z,99504.34
2018-12-13T21:13:47.167Z,99498.84
2018-12-13T21:16:17.423Z,99495.03
2018-12-13T21:18:48.923Z,99498.03
2018-12-13T21:21:19.907Z,99492.41
2018-12-13T21:23:49.414Z,99500.50
2018-12-13T21:26:18.793Z,99492.22
2018-12-13T21:28:49.137Z,99500.00
2018-12-13T21:31:18.365Z,99496.88
2018-12-13T21:33:48.879Z,99493.30
2018-12-13T21:36:26.047Z,99493.00
2018-12-13T21:38:55.255Z,99492.30
2018-12-13T21:41:24.488Z,99495.69
2018-12-13T21:43:54.791Z,99492.42
2018-12-13T21:46:24.104Z,99495.25
2018-12-13T21:48:53.306Z,99491.25
2018-12-13T21:51:22.538Z,99495.61
2018-12-13T21:53:52.039Z,99491.90
2018-12-13T21:56:21.212Z,99493.14
2018-12-13T21:58:50.873Z,99494.38
2018-12-13T22:01:20.084Z,99493.60
2018-12-13T22:03:50.208Z,99491.76
2018-12-13T22:06:20.080Z,99492.85
2018-12-13T22:08:49.341Z,99495.25
2018-12-13T22:11:20.060Z,99490.02
2018-12-13T22:13:49.495Z,99496.64
2018-12-13T22:16:19.373Z,99496.92
2018-12-13T22:18:48.580Z,99498.19
2018-12-13T22:21:17.780Z,99492.28
2018-12-13T22:23:47.539Z,99494.83
2018-12-13T22:26:16.746Z,99495.34
2018-12-13T22:28:45.969Z,99495.60
2018-12-13T22:31:16.552Z,99498.77
2018-12-13T22:33:45.728Z,99499.27
2018-12-13T22:36:15.003Z,99495.77
2018-12-13T22:38:44.436Z,99493.80
2018-12-13T22:41:14.734Z,99495.19
2018-12-13T22:43:43.955Z,99491.41
2018-12-13T22:46:14.384Z,99489.80
2018-12-13T22:48:43.786Z,99485.09
2018-12-13T22:51:13.133Z,99489.14
2018-12-13T22:53:42.351Z,99488.21
2018-12-13T22:56:11.928Z,99493.53
2018-12-13T22:58:41.238Z,99492.72
2018-12-13T23:01:10.586Z,99493.88
2018-12-13T23:03:41.718Z,99491.11
2018-12-13T23:06:11.176Z,99495.03
2018-12-13T23:08:40.854Z,99489.53
2018-12-13T23:11:10.796Z,99487.76
2018-12-13T23:13:40.531Z,99482.59
2018-12-13T23:16:09.851Z,99488.64
2018-12-13T23:18:39.002Z,99488.06
2018-12-13T23:21:08.577Z,99489.28
2018-12-13T23:23:38.014Z,99492.28
2018-12-13T23:26:08.833Z,99495.25
2018-12-13T23:28:38.501Z,99503.18
2018-12-13T23:31:07.690Z,99487.89
2018-12-13T23:33:37.411Z,99498.01
2018-12-13T23:36:07.118Z,99493.42
2018-12-13T23:38:36.245Z,99495.75
2018-12-13T23:41:05.613Z,99493.71
2018-12-13T23:43:34.841Z,99486.07
2018-12-13T23:46:05.712Z,99494.02
2018-12-13T23:48:36.756Z,99493.94
2018-12-13T23:51:05.957Z,99488.94
2018-12-13T23:53:35.680Z,99483.55
2018-12-13T23:56:07.489Z,99489.70
2018-12-13T23:58:36.923Z,99487.62
